WetterOnline ( http://www.wetteronline.de )

Wetter aktuell Rheinstetten

Aktuelles Wetter: Rheinstetten (116m)

6-stündlich | Neueste Meldungen
Ortszeit Temperatur Wetter
Mo, 18.03. 19:00 6.1° C wolkig
Mo, 18.03. 13:00 7.9° C wolkig
Mo, 18.03. 7:00 4.3° C bewölkt
Mo, 18.03. 1:00 4.2° C leicht bewölkt
So, 17.03. 19:00 6.2° C wolkig
So, 17.03. 13:00 13.3° C wolkig
So, 17.03. 7:00 10.0° C wolkig
So, 17.03. 1:00 9.4° C leicht bewölkt
Ortszeit Temperatur Wetter
Mo, 18.03. 20:00 4.4° C fast wolkenlos
Mo, 18.03. 19:50 4.4° C fast wolkenlos
Mo, 18.03. 19:40 5.3° C wolkenlos
Mo, 18.03. 19:30 5.4° C wolkenlos
Mo, 18.03. 19:20 5.4° C wolkenlos
Mo, 18.03. 19:10 5.5° C fast wolkenlos
Mo, 18.03. 19:00 6.1° C wolkig
Mo, 18.03. 18:30 7.5° C wolkig
Mo, 18.03. 18:00 7.2° C wolkenlos
Mo, 18.03. 17:30 7.7° C wolkig
Mo, 18.03. 17:00 8.3° C wolkig
Ortszeit Relative Feuchte Sichtweite
Mo, 18.03. 19:00 70% >70 km
Mo, 18.03. 13:00 72% 50 km
Mo, 18.03. 7:00 80% 55 km
Mo, 18.03. 1:00 79% 65 km
So, 17.03. 19:00 83% >70 km
So, 17.03. 13:00 66% 45 km
So, 17.03. 7:00 54% >70 km
So, 17.03. 1:00 70% 65 km
Ortszeit Relative Feuchte Sichtweite
Mo, 18.03. 20:00 79% >70 km
Mo, 18.03. 19:50 79% -
Mo, 18.03. 19:40 73% -
Mo, 18.03. 19:30 73% >70 km
Mo, 18.03. 19:20 73% -
Mo, 18.03. 19:10 72% -
Mo, 18.03. 19:00 70% >70 km
Mo, 18.03. 18:30 66% >70 km
Mo, 18.03. 18:00 72% >70 km
Mo, 18.03. 17:30 66% >70 km
Mo, 18.03. 17:00 66% >70 km
Ortszeit Niederschlagsmenge Niederschlagsart
Mo, 18.03. 19:00 0.1 l/m2 in 12 Std. Regen
Mo, 18.03. 13:00 0.0 l/m2 in 6 Std. -
Mo, 18.03. 7:00 0.0 l/m2 in 12 Std. -
Mo, 18.03. 1:00 0.0 l/m2 in 6 Std. -
So, 17.03. 19:00 2 l/m2 in 12 Std. Regen
So, 17.03. 13:00 0.0 l/m2 in 6 Std. -
So, 17.03. 7:00 0.0 l/m2 in 12 Std. -
So, 17.03. 1:00 0.0 l/m2 in 6 Std. -
Ortszeit Niederschlagsmenge Niederschlagsart
Mo, 18.03. 20:00 0.0 l/m2 in 1 Std. -
Mo, 18.03. 19:50 keine Meldung -
Mo, 18.03. 19:40 keine Meldung -
Mo, 18.03. 19:30 0.0 l/m2 in 1 Std. -
Mo, 18.03. 19:20 keine Meldung -
Mo, 18.03. 19:10 keine Meldung -
Mo, 18.03. 19:00 0.1 l/m2 in 1 Std. Regen
Mo, 18.03. 18:30 0.1 l/m2 in 1 Std. -
Mo, 18.03. 18:00 0.1 l/m2 in 1 Std. Regen
Mo, 18.03. 17:30 0.1 l/m2 in 1 Std. Schneeregen
Mo, 18.03. 17:00 0.0 l/m2 in 1 Std. -
Ortszeit Stärke Spitze Richtung
km/h Bft. km/h Grad Sektor
Mo, 18.03. 19:00 11 2 40 250° W
Mo, 18.03. 13:00 26 4 39 240° SW
Mo, 18.03. 7:00 14 3 40 260° W
Mo, 18.03. 1:00 13 3 50 220° SW
So, 17.03. 19:00 28 4 63 230° SW
So, 17.03. 13:00 40 6 61 260° W
So, 17.03. 7:00 24 4 35 250° W
So, 17.03. 1:00 11 2 32 240° SW
Ortszeit Stärke Spitze Richtung
km/h Bft. km/h Grad Sektor
Mo, 18.03. 20:00 6 1 13 180° S
Mo, 18.03. 19:50 6 1 - 180° S
Mo, 18.03. 19:40 7 2 - 170° S
Mo, 18.03. 19:30 4 1 14 180° S
Mo, 18.03. 19:20 4 1 - 180° S
Mo, 18.03. 19:10 4 1 - 270° W
Mo, 18.03. 19:00 11 2 29 250° W
Mo, 18.03. 18:30 19 3 30 260° W
Mo, 18.03. 18:00 6 1 26 140° SO
Mo, 18.03. 17:30 4 1 25 310° NW
Mo, 18.03. 17:00 18 3 29 230° SW
Ortszeit Untergrenze Bedeckung Gattung
total tief tief mittel hoch
Mo, 18.03. 19:00 1500 m 5/8 4/8 - - -
Mo, 18.03. 13:00 660 m 6/8 6/8 - - -
Mo, 18.03. 7:00 630 m 7/8 7/8 - - -
Mo, 18.03. 1:00 870 m 2/8 4/8 - - -
So, 17.03. 19:00 1020 m 7/8 2/8 - - -
So, 17.03. 13:00 2100 m 7/8 1/8 - - -
So, 17.03. 7:00 8400 m 7/8 0/8 - - -
So, 17.03. 1:00 9000 m 6/8 0/8 - - -
Ortszeit Bedeckungsgrad in Achtel und Wolkenuntergrenze
Mo, 18.03. 20:00 1(2400m)
Mo, 18.03. 19:50 1(2400m)
Mo, 18.03. 19:40 keine Wolken
Mo, 18.03. 19:30 keine Wolken
Mo, 18.03. 19:20 keine Wolken
Mo, 18.03. 19:10 1(1500m)
Mo, 18.03. 19:00 2(1500m) 4(2100m) 5(3000m)
Mo, 18.03. 18:30 4(1470m) 5(2100m) 5(3000m)
Mo, 18.03. 18:00 1(1320m)
Mo, 18.03. 17:30 2(840m) 3(1350m) 5(2700m)
Mo, 18.03. 17:00 5(1320m) 6(2400m) 7(2400m)
Ortszeit Luftdruck NN (hPa) Tendenz (hPa in 3 Std.)
Mo, 18.03. 19:00 1023 + 1,7
Mo, 18.03. 13:00 1021 + 0,6
Mo, 18.03. 7:00 1019 + 1,9
Mo, 18.03. 1:00 1017 + 1,0
So, 17.03. 19:00 1012 + 2,4
So, 17.03. 13:00 1005 + 0,5
So, 17.03. 7:00 1005 - 0,6
So, 17.03. 1:00 1007 - 2,1
Ortszeit Luftdruck NN (hPa) Tendenz (hPa in 3 Std.)
Mo, 18.03. 20:00 1023 + 2,0
Mo, 18.03. 19:50 1023 keine Meldung
Mo, 18.03. 19:40 1023 keine Meldung
Mo, 18.03. 19:30 1023 + 2,3
Mo, 18.03. 19:20 1023 keine Meldung
Mo, 18.03. 19:10 1023 keine Meldung
Mo, 18.03. 19:00 1023 + 1,7
Mo, 18.03. 18:30 1022 + 1,5
Mo, 18.03. 18:00 1022 + 1,0
Mo, 18.03. 17:30 1021 + 0,4
Mo, 18.03. 17:00 1021 - 0,1
Ortszeit Schneehöhe (cm)
Mo, 18.03. 19:00 0
Mo, 18.03. 13:00 0
Mo, 18.03. 7:00 0
Mo, 18.03. 1:00 0
So, 17.03. 19:00 0
So, 17.03. 13:00 0
So, 17.03. 7:00 0
So, 17.03. 1:00 0
Ortszeit Schneehöhe (cm)
Mo, 18.03. 20:00 0
Mo, 18.03. 19:50 0
Mo, 18.03. 19:40 0
Mo, 18.03. 19:30 0
Mo, 18.03. 19:20 0
Mo, 18.03. 19:10 0
Mo, 18.03. 19:00 0
Mo, 18.03. 18:30 0
Mo, 18.03. 18:00 0
Mo, 18.03. 17:30 0
Mo, 18.03. 17:00 0
Link zu dieser Seite / Seite empfehlen

Das Wetter in ...